Current Weather

Chicago O'Hare International

Chicago, Illinois (KORD)

Report from: Wednesday, September 28, 2022 4:51 AM CDT
Current time: Wednesday, September 28, 2022 5:08 AM CDT

Nearby weather
Weather history
Weather forecast

Temperature8.3°C (46.9°F)
Wind chill5.2°C (41.4°F)
Dew point4.4°C (39.9°F)
Winds 11 kts (5.7 m/s, 12.7 mph) North-Northwest (330°)
Visibility10 mi. (16.1 km)
Clouds Few clouds 2,000 ft. (610 m)
Few clouds 6,500 ft. (1,981 m)
Scattered clouds 9,500 ft. (2,896 m)
Altimeter30.34 in.Hg (1027 mB)
Relative humidity76 %
Density altitude-1,160 ft. (-354 m)
Sea-level pressure102.8 kPa (1028 mB, 30.35 in.Hg)
Remarks Automated weather observing station with precipitation discriminator
Flight conditions Visual Meteorological Conditions
Raw dataKORD 280951Z 33011KT 10SM FEW020 FEW065 SCT095 08/04 A3034 RMK AO2 SLP277 T00830044
An error has occurred. This application may no longer respond until reloaded. Reload 🗙